createdAt,value
2023-05-20T00:01:11.170Z,3.38
2023-05-20T00:03:40.710Z,2.72
2023-05-20T00:06:13.976Z,2.58
2023-05-20T00:08:43.774Z,3.28
2023-05-20T00:11:13.816Z,3.88
2023-05-20T00:13:48.619Z,4.18
2023-05-20T00:16:18.273Z,2.67
2023-05-20T00:18:50.374Z,3.35
2023-05-20T00:21:29.062Z,2.22
2023-05-20T00:24:01.496Z,2.55
2023-05-20T00:26:32.668Z,4.22
2023-05-20T00:29:03.372Z,1.73
2023-05-20T00:31:32.019Z,1.98
2023-05-20T00:34:01.339Z,2.25
2023-05-20T00:36:32.920Z,2.42
2023-05-20T00:39:02.026Z,1.70
2023-05-20T00:41:35.951Z,1.63
2023-05-20T00:44:04.461Z,2.38
2023-05-20T00:46:42.797Z,4.18
2023-05-20T00:49:14.213Z,1.85
2023-05-20T00:51:43.867Z,1.80
2023-05-20T00:54:12.932Z,1.10
2023-05-20T00:56:49.161Z,1.70
2023-05-20T00:59:19.059Z,1.23
2023-05-20T01:01:49.963Z,1.67
2023-05-20T01:04:22.021Z,2.55
2023-05-20T01:06:51.540Z,1.15
2023-05-20T01:09:20.756Z,1.20
2023-05-20T01:12:00.593Z,1.25
2023-05-20T01:14:36.176Z,1.42
2023-05-20T01:17:12.447Z,2.22
2023-05-20T01:19:45.423Z,1.20
2023-05-20T01:22:15.751Z,1.23
2023-05-20T01:24:56.362Z,1.35
2023-05-20T01:27:27.195Z,0.80
2023-05-20T01:29:57.829Z,1.08
2023-05-20T01:32:34.930Z,2.03
2023-05-20T01:35:05.197Z,1.30
2023-05-20T01:37:39.744Z,3.13
2023-05-20T01:40:10.461Z,10.80
2023-05-20T01:42:53.713Z,10.95
2023-05-20T01:45:27.195Z,9.70
2023-05-20T01:48:02.642Z,7.18
2023-05-20T01:50:35.618Z,5.20
2023-05-20T01:53:09.946Z,3.45
2023-05-20T01:55:41.424Z,2.03
2023-05-20T01:58:10.450Z,5.45
2023-05-20T02:00:41.565Z,2.22
2023-05-20T02:03:15.357Z,1.73
2023-05-20T02:05:44.850Z,3.42
2023-05-20T02:08:18.131Z,2.45
2023-05-20T02:10:49.974Z,1.60
2023-05-20T02:13:25.707Z,1.90
2023-05-20T02:15:55.811Z,1.75
2023-05-20T02:18:29.279Z,1.20
2023-05-20T02:21:02.259Z,2.53
2023-05-20T02:23:38.230Z,1.60
2023-05-20T02:26:06.813Z,3.15
2023-05-20T02:28:44.730Z,1.33
2023-05-20T02:31:19.370Z,1.60
2023-05-20T02:33:51.531Z,1.50
2023-05-20T02:36:20.290Z,1.92
2023-05-20T02:38:49.715Z,1.80
2023-05-20T02:41:18.260Z,1.75
2023-05-20T02:43:48.839Z,1.27
2023-05-20T02:46:19.073Z,1.50
2023-05-20T02:48:49.011Z,1.08
2023-05-20T02:51:20.529Z,1.38
2023-05-20T02:54:00.148Z,1.17
2023-05-20T02:56:32.905Z,1.33
2023-05-20T02:59:08.863Z,1.88
2023-05-20T03:01:52.728Z,1.08
2023-05-20T03:04:22.423Z,1.42
2023-05-20T03:06:54.122Z,1.48
2023-05-20T03:09:27.310Z,1.27
2023-05-20T03:12:00.112Z,2.42
2023-05-20T03:14:28.432Z,1.30
2023-05-20T03:16:57.470Z,1.55
2023-05-20T03:19:29.351Z,1.33
2023-05-20T03:22:05.667Z,1.23
2023-05-20T03:24:37.552Z,1.05
2023-05-20T03:27:13.099Z,1.83
2023-05-20T03:29:42.587Z,1.27
2023-05-20T03:32:14.267Z,1.40
2023-05-20T03:34:46.531Z,1.65
2023-05-20T03:37:18.398Z,1.45
2023-05-20T03:39:47.371Z,2.15
2023-05-20T03:42:19.941Z,1.80
2023-05-20T03:44:50.704Z,2.35
2023-05-20T03:47:19.894Z,2.35
2023-05-20T03:49:48.441Z,1.35
2023-05-20T03:52:18.596Z,2.05
2023-05-20T03:54:48.694Z,2.40
2023-05-20T03:57:17.385Z,3.00
2023-05-20T03:59:48.256Z,2.00
2023-05-20T04:02:22.115Z,1.05
2023-05-20T04:04:54.097Z,1.00
2023-05-20T04:07:23.372Z,1.40
2023-05-20T04:09:54.215Z,1.55
2023-05-20T04:12:25.282Z,2.13
2023-05-20T04:14:56.507Z,1.10
2023-05-20T04:17:25.251Z,1.42
2023-05-20T04:19:54.289Z,1.42
2023-05-20T04:22:22.878Z,1.20
2023-05-20T04:24:53.745Z,1.10
2023-05-20T04:27:25.786Z,1.75
2023-05-20T04:30:00.920Z,2.45
2023-05-20T04:32:39.845Z,1.30
2023-05-20T04:35:14.207Z,1.92
2023-05-20T04:40:33.772Z,1.25
2023-05-20T04:43:04.502Z,2.45
2023-05-20T04:45:41.440Z,2.80
2023-05-20T04:48:20.958Z,1.15
2023-05-20T04:50:52.387Z,1.42
2023-05-20T04:53:22.343Z,1.40
2023-05-20T04:55:54.987Z,1.42
2023-05-20T04:58:28.685Z,2.10
2023-05-20T05:01:03.752Z,2.95
2023-05-20T05:03:36.566Z,1.80
2023-05-20T05:06:15.050Z,35.63
2023-05-20T05:08:45.898Z,32.70
2023-05-20T05:11:14.472Z,20.30
2023-05-20T05:13:43.025Z,10.90
2023-05-20T05:16:12.597Z,8.65
2023-05-20T05:18:44.270Z,13.88
2023-05-20T05:21:12.755Z,13.63
2023-05-20T05:23:45.416Z,10.02
2023-05-20T05:26:14.136Z,14.35
2023-05-20T05:28:45.924Z,13.15
2023-05-20T05:31:15.122Z,8.30
2023-05-20T05:33:43.874Z,7.97
2023-05-20T05:36:12.546Z,4.95
2023-05-20T05:38:42.050Z,7.25
2023-05-20T05:41:10.546Z,9.10
2023-05-20T05:43:39.276Z,7.30
2023-05-20T05:46:11.614Z,4.35
2023-05-20T05:48:40.321Z,6.93
2023-05-20T05:51:18.297Z,4.78
2023-05-20T05:53:48.444Z,4.25
2023-05-20T05:56:20.093Z,4.70
2023-05-20T05:58:48.755Z,3.85
2023-05-20T06:01:19.872Z,5.07
2023-05-20T06:03:48.550Z,5.80
2023-05-20T06:06:17.380Z,6.20
2023-05-20T06:08:58.140Z,8.38
2023-05-20T06:11:26.901Z,6.05
2023-05-20T06:13:55.446Z,7.72
2023-05-20T06:16:23.826Z,4.30
2023-05-20T06:18:57.493Z,5.28
2023-05-20T06:21:26.046Z,4.32
2023-05-20T06:23:54.273Z,6.30
2023-05-20T06:26:23.095Z,6.50
2023-05-20T06:28:53.776Z,3.33
2023-05-20T06:31:22.110Z,6.38
2023-05-20T06:33:51.434Z,6.40
2023-05-20T06:36:20.313Z,6.82
2023-05-20T06:38:48.955Z,3.50
2023-05-20T06:41:19.024Z,7.43
2023-05-20T06:43:47.634Z,11.45
2023-05-20T06:46:39.452Z,4.30
2023-05-20T06:49:12.998Z,5.43
2023-05-20T06:51:41.396Z,8.48
2023-05-20T06:54:09.286Z,5.70
2023-05-20T06:56:37.160Z,5.30
2023-05-20T06:59:05.455Z,7.53
2023-05-20T07:01:35.508Z,22.83
2023-05-20T07:04:04.651Z,8.07
2023-05-20T07:06:34.109Z,8.60
2023-05-20T07:09:02.133Z,6.70
2023-05-20T07:11:30.219Z,8.35
2023-05-20T07:13:58.242Z,6.32
2023-05-20T07:16:27.620Z,5.38
2023-05-20T07:18:56.849Z,6.03
2023-05-20T07:21:25.309Z,5.93
2023-05-20T07:24:16.933Z,3.70
2023-05-20T07:26:45.036Z,7.35
2023-05-20T07:29:13.081Z,5.93
2023-05-20T07:31:41.071Z,4.88
2023-05-20T07:34:11.502Z,8.32
2023-05-20T07:36:42.076Z,6.72
2023-05-20T07:39:14.371Z,7.70
2023-05-20T07:41:43.311Z,9.52
2023-05-20T07:44:12.522Z,5.75
2023-05-20T07:46:43.779Z,7.85
2023-05-20T07:49:12.423Z,4.10
2023-05-20T07:51:40.980Z,6.97
2023-05-20T07:54:08.871Z,5.72
2023-05-20T07:56:38.537Z,4.75
2023-05-20T07:59:08.803Z,5.93
2023-05-20T08:01:43.482Z,5.93
2023-05-20T08:04:20.427Z,8.35
2023-05-20T08:06:53.483Z,15.70
2023-05-20T08:09:35.326Z,7.95
2023-05-20T08:12:17.190Z,6.63
2023-05-20T08:14:48.712Z,4.78
2023-05-20T08:17:17.525Z,6.47
2023-05-20T08:19:46.064Z,4.35
2023-05-20T08:22:15.588Z,4.90
2023-05-20T08:24:44.490Z,2.72
2023-05-20T08:27:15.234Z,4.75
2023-05-20T08:29:48.099Z,3.67
2023-05-20T08:32:16.842Z,3.95
2023-05-20T08:34:49.654Z,7.55
2023-05-20T08:37:28.790Z,6.72
2023-05-20T08:39:58.099Z,6.70
2023-05-20T08:42:29.251Z,5.40
2023-05-20T08:45:00.246Z,7.13
2023-05-20T08:47:30.876Z,8.13
2023-05-20T08:49:59.660Z,3.88
2023-05-20T08:52:32.257Z,6.07
2023-05-20T08:55:03.125Z,4.38
2023-05-20T08:57:34.212Z,6.95
2023-05-20T09:00:16.116Z,8.70
2023-05-20T09:02:48.866Z,4.95
2023-05-20T09:05:18.988Z,6.03
2023-05-20T09:07:48.252Z,7.82
2023-05-20T09:10:21.390Z,9.52
2023-05-20T09:12:52.042Z,8.20
2023-05-20T09:15:23.423Z,5.78
2023-05-20T09:17:54.244Z,5.70
2023-05-20T09:20:26.069Z,5.13
2023-05-20T09:23:05.097Z,7.43
2023-05-20T09:25:34.078Z,7.43
2023-05-20T09:28:07.807Z,4.90
2023-05-20T09:30:37.632Z,8.73
2023-05-20T09:33:10.747Z,6.38
2023-05-20T09:35:39.970Z,8.27
2023-05-20T09:38:10.988Z,13.55
2023-05-20T09:40:45.189Z,7.28
2023-05-20T09:43:13.846Z,6.72
2023-05-20T09:45:42.804Z,8.23
2023-05-20T09:48:13.498Z,11.90
2023-05-20T09:50:44.186Z,11.20
2023-05-20T09:53:13.666Z,13.88
2023-05-20T09:55:46.191Z,11.73
2023-05-20T09:58:16.560Z,10.70
2023-05-20T10:00:50.062Z,11.75
2023-05-20T10:03:22.012Z,7.88
2023-05-20T10:06:20.631Z,7.05
2023-05-20T10:09:20.115Z,6.30
2023-05-20T10:12:07.345Z,10.48
2023-05-20T10:15:13.288Z,4.78
2023-05-20T10:18:06.720Z,5.25
2023-05-20T10:20:49.017Z,5.55
2023-05-20T10:23:25.329Z,5.15
2023-05-20T10:25:57.289Z,5.47
2023-05-20T10:28:31.188Z,5.82
2023-05-20T10:31:00.372Z,5.18
2023-05-20T10:33:41.704Z,6.97
2023-05-20T10:36:10.347Z,4.97
2023-05-20T10:38:38.856Z,5.68
2023-05-20T10:41:11.801Z,5.03
2023-05-20T10:43:40.330Z,3.95
2023-05-20T10:46:32.677Z,4.05
2023-05-20T10:49:17.708Z,4.13
2023-05-20T10:51:48.131Z,7.40
2023-05-20T10:54:16.846Z,6.47
2023-05-20T10:56:53.859Z,3.45
2023-05-20T10:59:22.808Z,4.28
2023-05-20T11:01:51.970Z,6.13
2023-05-20T11:04:26.193Z,10.48
2023-05-20T11:06:55.675Z,10.60
2023-05-20T11:09:24.260Z,12.30
2023-05-20T11:11:54.153Z,9.50
2023-05-20T11:14:22.814Z,12.77
2023-05-20T11:16:57.959Z,13.25
2023-05-20T11:19:28.717Z,7.13
2023-05-20T11:21:57.248Z,7.45
2023-05-20T11:24:27.547Z,5.68
2023-05-20T11:26:57.871Z,6.78
2023-05-20T11:29:27.955Z,5.97
2023-05-20T11:31:56.561Z,7.22
2023-05-20T11:34:26.874Z,6.88
2023-05-20T11:36:59.712Z,10.93
2023-05-20T11:39:31.347Z,7.95
2023-05-20T11:42:00.736Z,7.78
2023-05-20T11:44:29.379Z,8.70
2023-05-20T11:47:02.465Z,9.43
2023-05-20T11:49:31.364Z,7.82
2023-05-20T11:51:59.818Z,9.60
2023-05-20T11:54:28.316Z,10.93
2023-05-20T11:56:57.165Z,9.18
2023-05-20T11:59:28.705Z,9.70
2023-05-20T12:01:57.400Z,9.82
2023-05-20T12:04:26.191Z,8.77
2023-05-20T12:06:56.114Z,10.65
2023-05-20T12:09:29.618Z,13.20
2023-05-20T12:12:01.773Z,16.95
2023-05-20T12:14:30.528Z,15.70
2023-05-20T12:16:59.045Z,14.02
2023-05-20T12:19:27.771Z,16.33
2023-05-20T12:21:56.488Z,12.50
2023-05-20T12:24:27.790Z,8.68
2023-05-20T12:26:56.479Z,19.25
2023-05-20T12:29:27.987Z,11.98
2023-05-20T12:31:57.742Z,8.52
2023-05-20T12:34:26.616Z,7.07
2023-05-20T12:36:55.236Z,6.95
2023-05-20T12:39:29.106Z,7.97
2023-05-20T12:41:57.821Z,5.93
2023-05-20T12:44:27.429Z,6.40
2023-05-20T12:46:56.834Z,4.60
2023-05-20T12:49:25.568Z,4.97
2023-05-20T12:51:53.966Z,4.88
2023-05-20T12:54:28.797Z,13.27
2023-05-20T12:56:58.492Z,6.97
2023-05-20T12:59:27.313Z,5.10
2023-05-20T13:01:56.076Z,9.05
2023-05-20T13:04:25.019Z,5.47
2023-05-20T13:06:53.812Z,4.53
2023-05-20T13:09:24.830Z,4.28
2023-05-20T13:11:53.438Z,4.22
2023-05-20T13:14:25.268Z,3.63
2023-05-20T13:16:55.482Z,5.32
2023-05-20T13:19:24.442Z,5.65
2023-05-20T13:21:55.882Z,4.85
2023-05-20T13:24:27.556Z,5.63
2023-05-20T13:26:59.166Z,5.63
2023-05-20T13:29:28.682Z,3.70
2023-05-20T13:31:58.385Z,4.72
2023-05-20T13:34:27.730Z,6.53
2023-05-20T13:36:56.339Z,5.82
2023-05-20T13:39:34.605Z,3.28
2023-05-20T13:42:04.609Z,3.65
2023-05-20T13:44:33.793Z,4.13
2023-05-20T13:47:02.599Z,5.63
2023-05-20T13:49:35.037Z,4.43
2023-05-20T13:52:03.973Z,4.97
2023-05-20T13:54:32.721Z,5.57
2023-05-20T13:57:02.211Z,5.10
2023-05-20T13:59:33.152Z,5.72
2023-05-20T14:02:06.693Z,4.75
2023-05-20T14:04:40.022Z,4.95
2023-05-20T14:07:10.094Z,6.65
2023-05-20T14:09:39.198Z,3.58
2023-05-20T14:12:10.089Z,3.30
2023-05-20T14:14:42.027Z,5.40
2023-05-20T14:17:11.753Z,7.18
2023-05-20T14:19:40.622Z,3.47
2023-05-20T14:22:14.148Z,3.35
2023-05-20T14:24:45.168Z,3.67
2023-05-20T14:27:35.501Z,3.90
2023-05-20T14:30:07.818Z,3.80
2023-05-20T14:32:38.707Z,4.07
2023-05-20T14:35:09.388Z,5.35
2023-05-20T14:37:42.914Z,5.13
2023-05-20T14:40:14.512Z,4.75
2023-05-20T14:42:51.750Z,5.78
2023-05-20T14:45:23.895Z,3.78
2023-05-20T14:48:00.569Z,5.75
2023-05-20T14:50:31.036Z,6.70
2023-05-20T14:53:08.965Z,6.22
2023-05-20T14:55:39.666Z,6.43
2023-05-20T14:58:17.895Z,7.70
2023-05-20T15:00:46.963Z,8.77
2023-05-20T15:03:23.896Z,10.55
2023-05-20T15:05:53.057Z,6.90
2023-05-20T15:08:26.020Z,5.80
2023-05-20T15:11:03.060Z,6.72
2023-05-20T15:13:40.934Z,7.97
2023-05-20T15:16:14.151Z,9.38
2023-05-20T15:18:48.567Z,6.40
2023-05-20T15:21:21.828Z,7.10
2023-05-20T15:23:51.140Z,7.20
2023-05-20T15:26:19.955Z,8.43
2023-05-20T15:28:48.383Z,8.23
2023-05-20T15:31:20.158Z,5.50
2023-05-20T15:33:48.927Z,6.30
2023-05-20T15:36:20.973Z,5.53
2023-05-20T15:38:52.092Z,5.28
2023-05-20T15:41:21.885Z,5.10
2023-05-20T15:43:51.460Z,4.47
2023-05-20T15:46:24.993Z,5.32
2023-05-20T15:48:56.755Z,5.00
2023-05-20T15:51:26.900Z,5.93
2023-05-20T15:53:55.477Z,5.43
2023-05-20T15:56:24.961Z,3.83
2023-05-20T15:58:56.918Z,4.07
2023-05-20T16:01:27.530Z,6.30
2023-05-20T16:04:02.232Z,4.72
2023-05-20T16:06:34.392Z,3.90
2023-05-20T16:09:05.381Z,4.22
2023-05-20T16:11:34.181Z,4.28
2023-05-20T16:14:05.889Z,4.32
2023-05-20T16:16:41.007Z,3.85
2023-05-20T16:19:11.506Z,4.10
2023-05-20T16:21:47.862Z,3.30
2023-05-20T16:24:23.194Z,4.10
2023-05-20T16:27:14.335Z,2.78
2023-05-20T16:29:42.475Z,4.38
2023-05-20T16:32:13.480Z,2.60
2023-05-20T16:34:41.903Z,3.20
2023-05-20T16:37:11.168Z,3.30
2023-05-20T16:39:40.886Z,3.75
2023-05-20T16:42:11.959Z,4.47
2023-05-20T16:44:40.103Z,3.13
2023-05-20T16:47:09.484Z,3.55
2023-05-20T16:49:37.948Z,3.13
2023-05-20T16:52:08.209Z,2.72
2023-05-20T16:54:39.088Z,3.17
2023-05-20T16:57:14.227Z,3.95
2023-05-20T16:59:42.952Z,3.25
2023-05-20T17:02:12.057Z,4.13
2023-05-20T17:04:44.338Z,3.38
2023-05-20T17:07:15.478Z,4.05
2023-05-20T17:09:44.018Z,6.40
2023-05-20T17:12:13.714Z,3.70
2023-05-20T17:14:44.784Z,5.55
2023-05-20T17:17:15.880Z,3.90
2023-05-20T17:19:47.713Z,5.15
2023-05-20T17:22:21.906Z,5.15
2023-05-20T17:24:52.125Z,7.18
2023-05-20T17:27:23.647Z,10.55
2023-05-20T17:29:52.363Z,9.05
2023-05-20T17:32:20.836Z,7.55
2023-05-20T17:34:49.445Z,7.25
2023-05-20T17:37:31.656Z,4.25
2023-05-20T17:40:00.765Z,5.30
2023-05-20T17:42:33.409Z,4.75
2023-05-20T17:45:05.422Z,4.40
2023-05-20T17:47:37.916Z,5.15
2023-05-20T17:50:07.303Z,5.03
2023-05-20T17:52:39.032Z,5.38
2023-05-20T17:55:08.001Z,5.75
2023-05-20T17:57:37.241Z,3.88
2023-05-20T18:00:07.819Z,3.15
2023-05-20T18:02:38.608Z,3.65
2023-05-20T18:05:07.160Z,3.95
2023-05-20T18:07:37.796Z,3.83
2023-05-20T18:10:07.356Z,4.63
2023-05-20T18:12:38.567Z,4.03
2023-05-20T18:15:10.173Z,3.80
2023-05-20T18:17:40.378Z,4.55
2023-05-20T18:20:10.861Z,7.80
2023-05-20T18:22:45.717Z,5.82
2023-05-20T18:25:15.165Z,4.95
2023-05-20T18:27:44.715Z,5.25
2023-05-20T18:30:13.752Z,5.63
2023-05-20T18:32:42.753Z,6.70
2023-05-20T18:35:12.964Z,11.95
2023-05-20T18:37:42.568Z,15.18
2023-05-20T18:40:11.618Z,19.33
2023-05-20T18:42:42.795Z,12.77
2023-05-20T18:45:11.341Z,8.77
2023-05-20T18:47:40.270Z,8.52
2023-05-20T18:50:12.237Z,8.35
2023-05-20T18:52:46.426Z,8.82
2023-05-20T18:55:15.376Z,8.35
2023-05-20T18:57:49.049Z,7.82
2023-05-20T19:00:19.030Z,7.13
2023-05-20T19:02:50.830Z,8.63
2023-05-20T19:05:20.206Z,7.00
2023-05-20T19:07:48.922Z,7.03
2023-05-20T19:10:17.543Z,8.25
2023-05-20T19:12:49.784Z,9.73
2023-05-20T19:15:19.415Z,6.15
2023-05-20T19:17:48.465Z,11.88
2023-05-20T19:20:18.184Z,7.72
2023-05-20T19:22:46.954Z,12.02
2023-05-20T19:25:15.958Z,10.55
2023-05-20T19:27:48.617Z,11.35
2023-05-20T19:30:17.453Z,9.63
2023-05-20T19:32:50.659Z,5.57
2023-05-20T19:35:21.672Z,7.88
2023-05-20T19:37:58.022Z,8.80
2023-05-20T19:40:29.212Z,5.63
2023-05-20T19:42:57.721Z,6.07
2023-05-20T19:45:32.807Z,5.72
2023-05-20T19:48:04.473Z,7.28
2023-05-20T19:50:35.891Z,6.85
2023-05-20T19:53:07.660Z,5.25
2023-05-20T19:55:37.567Z,5.75
2023-05-20T19:58:08.133Z,7.07
2023-05-20T20:00:37.891Z,8.02
2023-05-20T20:03:07.787Z,7.00
2023-05-20T20:05:39.582Z,6.10
2023-05-20T20:08:15.241Z,6.90
2023-05-20T20:11:35.288Z,8.85
2023-05-20T20:14:03.645Z,11.68
2023-05-20T20:16:32.170Z,10.13
2023-05-20T20:19:00.328Z,7.45
2023-05-20T20:21:29.431Z,8.45
2023-05-20T20:24:00.906Z,8.23
2023-05-20T20:26:30.915Z,8.50
2023-05-20T20:28:58.865Z,7.30
2023-05-20T20:31:28.186Z,6.05
2023-05-20T20:34:00.108Z,6.70
2023-05-20T20:36:32.303Z,6.65
2023-05-20T20:39:02.991Z,7.43
2023-05-20T20:41:32.414Z,8.35
2023-05-20T20:44:04.975Z,7.38
2023-05-20T20:46:33.478Z,9.68
2023-05-20T20:49:02.144Z,6.60
2023-05-20T20:51:30.505Z,11.88
2023-05-20T20:53:58.987Z,10.98
2023-05-20T20:56:27.488Z,11.27
2023-05-20T20:58:57.403Z,11.88
2023-05-20T21:01:29.335Z,11.80
2023-05-20T21:03:58.992Z,10.02
2023-05-20T21:06:28.609Z,9.90
2023-05-20T21:08:58.523Z,12.77
2023-05-20T21:11:28.328Z,11.23
2023-05-20T21:13:56.921Z,11.07
2023-05-20T21:16:25.311Z,9.40
2023-05-20T21:18:54.153Z,7.10
2023-05-20T21:21:22.891Z,7.68
2023-05-20T21:23:52.455Z,8.23
2023-05-20T21:26:26.969Z,9.48
2023-05-20T21:28:58.093Z,7.68
2023-05-20T21:31:29.936Z,7.05
2023-05-20T21:33:58.779Z,6.10
2023-05-20T21:36:29.210Z,8.00
2023-05-20T21:38:57.670Z,6.78
2023-05-20T21:41:31.951Z,6.28
2023-05-20T21:44:00.880Z,6.20
2023-05-20T21:46:29.883Z,5.53
2023-05-20T21:48:58.668Z,7.22
2023-05-20T21:51:27.113Z,5.53
2023-05-20T21:53:55.591Z,4.88
2023-05-20T21:56:26.788Z,5.85
2023-05-20T21:58:55.112Z,4.13
2023-05-20T22:01:26.094Z,4.82
2023-05-20T22:03:56.436Z,6.57
2023-05-20T22:06:26.176Z,5.20
2023-05-20T22:08:55.170Z,7.22
2023-05-20T22:11:26.420Z,7.78
2023-05-20T22:13:56.160Z,4.20
2023-05-20T22:16:25.167Z,6.07
2023-05-20T22:18:54.931Z,5.25
2023-05-20T22:21:26.491Z,6.55
2023-05-20T22:23:55.907Z,5.72
2023-05-20T22:26:25.634Z,6.85
2023-05-20T22:28:54.228Z,3.80
2023-05-20T22:31:23.327Z,5.35
2023-05-20T22:33:52.278Z,7.25
2023-05-20T22:36:22.480Z,3.33
2023-05-20T22:38:52.019Z,5.47
2023-05-20T22:41:26.852Z,5.85
2023-05-20T22:43:58.675Z,5.22
2023-05-20T22:46:28.126Z,6.85
2023-05-20T22:48:59.180Z,7.45
2023-05-20T22:51:28.126Z,7.75
2023-05-20T22:53:58.175Z,6.85
2023-05-20T22:56:26.948Z,7.85
2023-05-20T22:59:01.111Z,7.68
2023-05-20T23:01:29.810Z,8.50
2023-05-20T23:04:06.145Z,9.90
2023-05-20T23:06:39.313Z,8.18
2023-05-20T23:09:11.662Z,7.72
2023-05-20T23:11:40.765Z,8.57
2023-05-20T23:14:10.304Z,10.57
2023-05-20T23:16:43.219Z,13.07
2023-05-20T23:19:12.199Z,10.43
2023-05-20T23:21:42.965Z,11.88
2023-05-20T23:24:12.396Z,8.65
2023-05-20T23:26:50.726Z,8.98
2023-05-20T23:29:19.635Z,10.25
2023-05-20T23:31:51.190Z,10.23
2023-05-20T23:34:20.192Z,10.23
2023-05-20T23:36:50.353Z,14.27
2023-05-20T23:39:19.175Z,11.48
2023-05-20T23:41:52.826Z,10.55
2023-05-20T23:44:24.198Z,16.35
2023-05-20T23:46:56.928Z,16.13
2023-05-20T23:49:27.477Z,11.98
2023-05-20T23:52:06.281Z,12.10
2023-05-20T23:54:35.236Z,12.32
2023-05-20T23:57:05.162Z,21.83
2023-05-20T23:59:37.207Z,23.08
